createdAt,value
2019-01-18T00:01:36.620Z,100018.37
2019-01-18T00:04:07.220Z,100018.37
2019-01-18T00:06:36.359Z,100029.80
2019-01-18T00:09:08.193Z,100029.80
2019-01-18T00:11:37.343Z,100028.95
2019-01-18T00:14:06.860Z,100026.47
2019-01-18T00:16:36.651Z,100026.62
2019-01-18T00:19:06.126Z,100035.27
2019-01-18T00:21:35.375Z,100035.58
2019-01-18T00:24:04.646Z,100034.67
2019-01-18T00:26:33.908Z,100034.67
2019-01-18T00:29:03.162Z,100047.91
2019-01-18T00:31:33.076Z,100035.42
2019-01-18T00:34:02.383Z,100043.90
2019-01-18T00:36:31.606Z,100043.90
2019-01-18T00:39:00.714Z,100056.30
2019-01-18T00:41:30.339Z,100056.30
2019-01-18T00:43:59.588Z,100052.48
2019-01-18T00:46:28.697Z,100058.78
2019-01-18T00:48:57.851Z,100061.93
2019-01-18T00:51:27.209Z,100070.08
2019-01-18T00:53:56.661Z,100069.63
2019-01-18T00:56:26.331Z,100069.63
2019-01-18T00:58:55.408Z,100074.47
2019-01-18T01:01:24.954Z,100077.27
2019-01-18T01:03:54.204Z,100083.06
2019-01-18T01:06:23.503Z,100076.44
2019-01-18T01:08:52.612Z,100077.39
2019-01-18T01:11:22.192Z,100092.15
2019-01-18T01:13:51.545Z,100099.92
2019-01-18T01:16:20.960Z,100099.92
2019-01-18T01:18:50.249Z,100104.58
2019-01-18T01:21:19.578Z,100107.09
2019-01-18T01:23:48.852Z,100122.98
2019-01-18T01:26:17.931Z,100122.13
2019-01-18T01:28:47.329Z,100120.78
2019-01-18T01:31:16.664Z,100120.78
2019-01-18T01:33:45.933Z,100121.48
2019-01-18T01:36:15.317Z,100131.08
2019-01-18T01:38:44.638Z,100125.08
2019-01-18T01:41:13.806Z,100129.81
2019-01-18T01:43:42.892Z,100129.51
2019-01-18T01:46:11.977Z,100146.11
2019-01-18T01:48:41.062Z,100150.23
2019-01-18T01:51:10.184Z,100151.16
2019-01-18T01:53:39.279Z,100153.40
2019-01-18T01:56:08.675Z,100153.40
2019-01-18T01:58:37.801Z,100161.29
2019-01-18T02:01:06.972Z,100161.29
2019-01-18T02:03:36.369Z,100170.92
2019-01-18T02:06:05.453Z,100166.08
2019-01-18T02:08:34.628Z,100170.23
2019-01-18T02:11:04.201Z,100178.02
2019-01-18T02:13:33.274Z,100171.52
2019-01-18T02:16:02.409Z,100171.52
2019-01-18T02:18:31.637Z,100188.48
2019-01-18T02:21:00.868Z,100188.48
2019-01-18T02:23:30.167Z,100185.97
2019-01-18T02:25:59.381Z,100194.06
2019-01-18T02:28:28.743Z,100194.06
2019-01-18T02:30:57.945Z,100196.17
2019-01-18T02:33:27.313Z,100196.17
2019-01-18T02:35:56.537Z,100191.56
2019-01-18T02:38:25.777Z,100193.82
2019-01-18T02:40:55.090Z,100193.82
2019-01-18T02:43:24.853Z,100192.02
2019-01-18T02:45:54.314Z,100196.98
2019-01-18T02:48:23.523Z,100203.91
2019-01-18T02:50:52.917Z,100199.51
2019-01-18T02:53:22.030Z,100199.51
2019-01-18T02:55:51.275Z,100205.44
2019-01-18T02:58:20.330Z,100205.44
2019-01-18T03:00:49.515Z,100199.08
2019-01-18T03:03:18.814Z,100207.50
2019-01-18T03:05:47.894Z,100209.67
2019-01-18T03:08:17.074Z,100209.67
2019-01-18T03:10:46.272Z,100210.99
2019-01-18T03:13:15.371Z,100213.45
2019-01-18T03:15:44.688Z,100215.11
2019-01-18T03:18:13.774Z,100217.06
2019-01-18T03:20:43.171Z,100218.39
2019-01-18T03:23:12.557Z,100223.53
2019-01-18T03:25:41.612Z,100229.67
2019-01-18T03:28:10.736Z,100229.67
2019-01-18T03:30:39.931Z,100224.95
2019-01-18T03:33:09.189Z,100221.73
2019-01-18T03:35:38.455Z,100231.33
2019-01-18T03:38:07.619Z,100231.44
2019-01-18T03:40:36.878Z,100233.64
2019-01-18T03:43:06.134Z,100233.64
2019-01-18T03:45:35.309Z,100233.83
2019-01-18T03:48:04.589Z,100242.14
2019-01-18T03:50:33.665Z,100242.14
2019-01-18T03:53:02.980Z,100250.04
2019-01-18T03:55:32.409Z,100250.70
2019-01-18T03:58:01.880Z,100250.48
2019-01-18T04:00:31.674Z,100252.43
2019-01-18T04:03:01.178Z,100256.98
2019-01-18T04:05:30.407Z,100263.05
2019-01-18T04:07:59.859Z,100264.52
2019-01-18T04:10:28.992Z,100268.16
2019-01-18T04:12:58.090Z,100271.80
2019-01-18T04:15:27.168Z,100268.94
2019-01-18T04:17:56.442Z,100277.31
2019-01-18T04:20:25.662Z,100271.51
2019-01-18T04:22:54.751Z,100273.61
2019-01-18T04:25:31.550Z,100279.62
2019-01-18T04:28:01.000Z,100279.62
2019-01-18T04:30:33.690Z,100276.03
2019-01-18T04:33:01.353Z,100276.61
2019-01-18T04:35:30.502Z,100267.64
2019-01-18T04:37:59.685Z,100284.12
2019-01-18T04:40:29.098Z,100280.26
2019-01-18T04:42:58.195Z,100280.26
2019-01-18T04:45:27.255Z,100288.23
2019-01-18T04:47:56.615Z,100296.18
2019-01-18T04:50:27.551Z,100303.02
2019-01-18T04:52:57.044Z,100303.02
2019-01-18T04:55:26.169Z,100308.64
2019-01-18T04:57:55.504Z,100308.23
2019-01-18T05:00:26.670Z,100312.87
2019-01-18T05:02:55.855Z,100312.87
2019-01-18T05:05:25.167Z,100328.68
2019-01-18T05:07:54.272Z,100319.81
2019-01-18T05:10:24.687Z,100319.81
2019-01-18T05:12:53.822Z,100338.30
2019-01-18T05:15:25.069Z,100338.30
2019-01-18T05:17:54.246Z,100341.73
2019-01-18T05:20:23.459Z,100342.02
2019-01-18T05:22:52.588Z,100329.92
2019-01-18T05:25:21.806Z,100333.50
2019-01-18T05:27:50.981Z,100341.40
2019-01-18T05:30:25.010Z,100343.83
2019-01-18T05:32:54.181Z,100350.26
2019-01-18T05:35:23.601Z,100349.27
2019-01-18T05:37:52.745Z,100349.27
2019-01-18T05:40:21.862Z,100361.40
2019-01-18T05:42:51.179Z,100364.81
2019-01-18T05:45:21.433Z,100366.98
2019-01-18T05:47:50.747Z,100370.38
2019-01-18T05:50:22.251Z,100370.38
2019-01-18T05:52:51.476Z,100366.26
2019-01-18T05:55:20.871Z,100370.81
2019-01-18T05:57:50.870Z,100371.72
2019-01-18T06:00:28.864Z,100369.05
2019-01-18T06:02:58.035Z,100384.86
2019-01-18T06:05:28.792Z,100388.78
2019-01-18T06:07:58.105Z,100399.23
2019-01-18T06:10:27.215Z,100399.23
2019-01-18T06:12:56.464Z,100407.58
2019-01-18T06:15:25.569Z,100407.58
2019-01-18T06:17:54.965Z,100406.40
2019-01-18T06:20:24.291Z,100409.38
2019-01-18T06:22:53.565Z,100409.38
2019-01-18T06:25:22.792Z,100412.46
2019-01-18T06:27:51.894Z,100414.53
2019-01-18T06:30:21.055Z,100421.62
2019-01-18T06:32:50.153Z,100420.53
2019-01-18T06:35:19.536Z,100416.70
2019-01-18T06:37:48.837Z,100405.12
2019-01-18T06:40:18.475Z,100405.12
2019-01-18T06:42:47.558Z,100425.25
2019-01-18T06:45:18.410Z,100412.59
2019-01-18T06:47:47.718Z,100425.10
2019-01-18T06:50:18.530Z,100425.10
2019-01-18T06:52:47.793Z,100427.75
2019-01-18T06:55:17.095Z,100425.60
2019-01-18T06:57:46.339Z,100430.37
2019-01-18T07:00:27.407Z,100430.37
2019-01-18T07:02:56.536Z,100445.36
2019-01-18T07:05:25.768Z,100445.36
2019-01-18T07:07:54.880Z,100443.32
2019-01-18T07:10:24.307Z,100448.85
2019-01-18T07:12:53.591Z,100451.22
2019-01-18T07:15:23.087Z,100451.22
2019-01-18T07:17:52.296Z,100456.14
2019-01-18T07:20:21.760Z,100462.56
2019-01-18T07:22:51.246Z,100464.56
2019-01-18T07:25:31.574Z,100471.64
2019-01-18T07:28:00.704Z,100471.64
2019-01-18T07:30:40.969Z,100462.38
2019-01-18T07:33:12.625Z,100471.36
2019-01-18T07:35:42.036Z,100471.36
2019-01-18T07:38:11.106Z,100465.64
2019-01-18T07:40:40.202Z,100483.03
2019-01-18T07:43:09.630Z,100483.03
2019-01-18T07:45:38.753Z,100489.94
2019-01-18T07:48:08.243Z,100489.94
2019-01-18T07:50:38.440Z,100489.31
2019-01-18T07:53:08.146Z,100493.00
2019-01-18T07:55:37.538Z,100486.81
2019-01-18T07:58:06.593Z,100503.16
2019-01-18T08:00:35.833Z,100504.07
2019-01-18T08:03:05.246Z,100510.45
2019-01-18T08:05:34.448Z,100507.95
2019-01-18T08:08:03.788Z,100514.52
2019-01-18T08:10:32.978Z,100514.52
2019-01-18T08:13:02.107Z,100519.75
2019-01-18T08:15:31.357Z,100525.58
2019-01-18T08:18:00.424Z,100525.58
2019-01-18T08:20:31.053Z,100541.00
2019-01-18T08:23:01.023Z,100536.25
2019-01-18T08:25:30.212Z,100536.25
2019-01-18T08:27:59.711Z,100541.17
2019-01-18T08:30:31.551Z,100539.94
2019-01-18T08:33:00.598Z,100536.05
2019-01-18T08:35:31.436Z,100546.30
2019-01-18T08:38:00.510Z,100546.30
2019-01-18T08:40:38.031Z,100553.86
2019-01-18T08:43:09.344Z,100556.38
2019-01-18T08:45:41.604Z,100556.38
2019-01-18T08:48:10.963Z,100553.88
2019-01-18T08:50:41.094Z,100554.22
2019-01-18T08:53:10.383Z,100554.22
2019-01-18T08:55:39.503Z,100552.71
2019-01-18T08:58:08.761Z,100552.71
2019-01-18T09:00:38.095Z,100551.12
2019-01-18T09:03:07.438Z,100569.94
2019-01-18T09:05:37.267Z,100571.28
2019-01-18T09:08:06.402Z,100560.95
2019-01-18T09:10:35.749Z,100560.95
2019-01-18T09:13:04.833Z,100568.05
2019-01-18T09:15:34.079Z,100575.55
2019-01-18T09:18:03.206Z,100569.64
2019-01-18T09:20:32.458Z,100563.44
2019-01-18T09:23:01.665Z,100573.59
2019-01-18T09:25:30.965Z,100573.07
2019-01-18T09:28:00.313Z,100579.94
2019-01-18T09:30:33.192Z,100579.93
2019-01-18T09:33:03.513Z,100583.81
2019-01-18T09:35:33.171Z,100584.99
2019-01-18T09:38:02.319Z,100583.34
2019-01-18T09:40:34.150Z,100591.84
2019-01-18T09:43:03.200Z,100599.71
2019-01-18T09:45:33.909Z,100596.08
2019-01-18T09:48:03.053Z,100594.09
2019-01-18T09:50:33.281Z,100593.93
2019-01-18T09:53:03.350Z,100594.09
2019-01-18T09:55:32.430Z,100600.31
2019-01-18T09:58:01.919Z,100598.12
2019-01-18T10:00:33.610Z,100606.36
2019-01-18T10:03:03.159Z,100605.35
2019-01-18T10:05:32.933Z,100598.73
2019-01-18T10:08:02.331Z,100594.42
2019-01-18T10:10:31.728Z,100601.08
2019-01-18T10:13:01.079Z,100600.95
2019-01-18T10:15:41.976Z,100599.94
2019-01-18T10:18:11.116Z,100598.28
2019-01-18T10:20:40.339Z,100599.80
2019-01-18T10:23:09.408Z,100600.79
2019-01-18T10:25:38.494Z,100600.64
2019-01-18T10:28:07.932Z,100605.28
2019-01-18T10:30:37.109Z,100599.94
2019-01-18T10:33:06.332Z,100595.63
2019-01-18T10:35:35.422Z,100599.81
2019-01-18T10:38:04.724Z,100593.63
2019-01-18T10:40:34.497Z,100594.80
2019-01-18T10:43:03.566Z,100588.16
2019-01-18T10:45:32.640Z,100585.98
2019-01-18T10:48:01.729Z,100585.80
2019-01-18T10:50:32.832Z,100588.12
2019-01-18T10:53:02.418Z,100589.13
2019-01-18T10:55:31.544Z,100588.64
2019-01-18T10:58:00.623Z,100600.15
2019-01-18T11:00:33.343Z,100592.78
2019-01-18T11:03:02.630Z,100585.78
2019-01-18T11:05:31.846Z,100585.47
2019-01-18T11:08:01.142Z,100587.81
2019-01-18T11:10:30.442Z,100586.31
2019-01-18T11:12:59.573Z,100584.64
2019-01-18T11:15:30.687Z,100580.97
2019-01-18T11:18:00.122Z,100584.91
2019-01-18T11:20:39.145Z,100580.83
2019-01-18T11:23:08.203Z,100581.26
2019-01-18T11:25:37.352Z,100577.52
2019-01-18T11:28:06.552Z,100581.75
2019-01-18T11:30:35.927Z,100584.70
2019-01-18T11:33:04.998Z,100581.89
2019-01-18T11:35:34.374Z,100575.02
2019-01-18T11:38:03.520Z,100570.50
2019-01-18T11:40:33.068Z,100570.03
2019-01-18T11:43:02.803Z,100571.36
2019-01-18T11:45:32.319Z,100569.69
2019-01-18T11:48:01.406Z,100565.00
2019-01-18T11:50:30.668Z,100564.98
2019-01-18T11:52:59.762Z,100561.26
2019-01-18T11:55:29.000Z,100567.23
2019-01-18T11:57:58.351Z,100565.29
2019-01-18T12:00:28.083Z,100561.92
2019-01-18T12:02:57.228Z,100553.89
2019-01-18T12:05:26.746Z,100555.55
2019-01-18T12:07:56.061Z,100557.25
2019-01-18T12:10:27.497Z,100555.77
2019-01-18T12:12:56.784Z,100555.41
2019-01-18T12:15:26.074Z,100548.31
2019-01-18T12:17:55.175Z,100535.11
2019-01-18T12:20:30.163Z,100539.92
2019-01-18T12:22:59.275Z,100541.27
2019-01-18T12:25:28.453Z,100541.53
2019-01-18T12:27:57.669Z,100541.27
2019-01-18T12:30:32.720Z,100537.12
2019-01-18T12:33:01.955Z,100531.91
2019-01-18T12:35:31.320Z,100529.70
2019-01-18T12:38:00.396Z,100534.02
2019-01-18T12:40:29.648Z,100537.74
2019-01-18T12:42:59.051Z,100530.19
2019-01-18T12:45:28.346Z,100532.88
2019-01-18T12:47:57.434Z,100527.69
2019-01-18T12:50:34.628Z,100529.73
2019-01-18T12:53:04.137Z,100532.23
2019-01-18T12:55:33.740Z,100530.29
2019-01-18T12:58:02.898Z,100530.29
2019-01-18T13:00:32.226Z,100536.06
2019-01-18T13:03:01.423Z,100532.72
2019-01-18T13:05:39.855Z,100533.39
2019-01-18T13:08:09.172Z,100530.73
2019-01-18T13:10:38.429Z,100530.21
2019-01-18T13:13:07.853Z,100533.02
2019-01-18T13:15:40.545Z,100527.50
2019-01-18T13:18:09.714Z,100527.50
2019-01-18T13:20:38.912Z,100523.59
2019-01-18T13:23:08.202Z,100538.15
2019-01-18T13:25:37.263Z,100534.96
2019-01-18T13:28:06.366Z,100534.22
2019-01-18T13:30:35.463Z,100534.58
2019-01-18T13:33:05.621Z,100533.70
2019-01-18T13:35:35.079Z,100524.23
2019-01-18T13:38:04.570Z,100529.70
2019-01-18T13:40:33.716Z,100519.11
2019-01-18T13:43:03.626Z,100519.11
2019-01-18T13:45:33.028Z,100525.23
2019-01-18T13:48:02.345Z,100529.42
2019-01-18T13:50:32.402Z,100530.34
2019-01-18T13:53:03.011Z,100529.91
2019-01-18T13:55:33.051Z,100529.91
2019-01-18T13:58:02.438Z,100527.10
2019-01-18T14:00:32.115Z,100531.98
2019-01-18T14:03:02.667Z,100529.02
2019-01-18T14:05:32.021Z,100530.37
2019-01-18T14:08:01.180Z,100529.86
2019-01-18T14:10:30.356Z,100529.86
2019-01-18T14:12:59.663Z,100537.87
2019-01-18T14:15:29.158Z,100537.30
2019-01-18T14:17:58.727Z,100537.30
2019-01-18T14:20:28.015Z,100544.23
2019-01-18T14:22:58.505Z,100538.36
2019-01-18T14:25:28.168Z,100530.84
2019-01-18T14:27:57.785Z,100524.63
2019-01-18T14:30:27.405Z,100544.23
2019-01-18T14:32:58.911Z,100539.55
2019-01-18T14:35:28.450Z,100533.48
2019-01-18T14:37:58.685Z,100545.64
2019-01-18T14:40:28.026Z,100540.94
2019-01-18T14:42:59.854Z,100542.48
2019-01-18T14:45:32.112Z,100540.65
2019-01-18T14:48:01.861Z,100541.73
2019-01-18T14:50:31.513Z,100543.52
2019-01-18T14:53:00.953Z,100547.31
2019-01-18T14:55:30.210Z,100538.33
2019-01-18T14:57:59.584Z,100536.61
2019-01-18T15:00:33.212Z,100535.28
2019-01-18T15:03:03.578Z,100535.28
2019-01-18T15:05:33.367Z,100541.73
2019-01-18T15:08:02.749Z,100532.27
2019-01-18T15:10:31.903Z,100532.27
2019-01-18T15:13:03.916Z,100532.90
2019-01-18T15:15:33.167Z,100545.53
2019-01-18T15:18:02.428Z,100545.53
2019-01-18T15:20:32.308Z,100541.19
2019-01-18T15:23:02.015Z,100541.19
2019-01-18T15:25:31.339Z,100544.05
2019-01-18T15:28:01.034Z,100542.66
2019-01-18T15:30:31.378Z,100544.41
2019-01-18T15:33:00.886Z,100538.77
2019-01-18T15:35:32.840Z,100547.77
2019-01-18T15:38:03.323Z,100547.77
2019-01-18T15:40:34.605Z,100547.98
2019-01-18T15:43:04.747Z,100543.27
2019-01-18T15:45:34.377Z,100544.53
2019-01-18T15:48:03.726Z,100544.53
2019-01-18T15:50:35.405Z,100543.83
2019-01-18T15:53:05.129Z,100543.27
2019-01-18T15:55:35.290Z,100548.16
2019-01-18T15:58:05.258Z,100541.50
2019-01-18T16:00:56.768Z,100535.15
2019-01-18T16:03:54.787Z,100535.15
2019-01-18T16:06:28.625Z,100547.12
2019-01-18T16:09:15.885Z,100547.12
2019-01-18T16:12:07.286Z,100536.92
2019-01-18T16:14:38.478Z,100546.86
2019-01-18T16:17:13.333Z,100546.86
2019-01-18T16:19:42.734Z,100538.11
2019-01-18T16:22:11.882Z,100534.14
2019-01-18T16:24:41.525Z,100552.22
2019-01-18T16:27:10.751Z,100533.55
2019-01-18T16:29:39.898Z,100529.38
2019-01-18T16:32:09.277Z,100529.38
2019-01-18T16:34:38.605Z,100529.89
2019-01-18T16:37:08.301Z,100536.41
2019-01-18T16:39:38.236Z,100526.05
2019-01-18T16:42:09.773Z,100529.25
2019-01-18T16:44:39.449Z,100527.16
2019-01-18T16:47:10.252Z,100522.93
2019-01-18T16:49:39.653Z,100517.91
2019-01-18T16:52:09.026Z,100504.81
2019-01-18T16:54:38.887Z,100504.81
2019-01-18T16:57:08.115Z,100517.05
2019-01-18T16:59:38.103Z,100513.16
2019-01-18T17:02:07.478Z,100513.16
2019-01-18T17:04:36.609Z,100516.08
2019-01-18T17:07:05.898Z,100516.08
2019-01-18T17:09:35.166Z,100509.74
2019-01-18T17:12:04.606Z,100509.74
2019-01-18T17:14:34.924Z,100518.86
2019-01-18T17:17:04.945Z,100521.20
2019-01-18T17:19:34.149Z,100514.72
2019-01-18T17:22:03.759Z,100514.18
2019-01-18T17:24:33.182Z,100517.23
2019-01-18T17:27:02.788Z,100514.54
2019-01-18T17:29:32.352Z,100515.39
2019-01-18T17:32:02.016Z,100515.39
2019-01-18T17:34:31.292Z,100517.52
2019-01-18T17:37:10.006Z,100515.39
2019-01-18T17:40:12.489Z,100519.29
2019-01-18T17:43:18.624Z,100514.11
2019-01-18T17:46:27.926Z,100509.09
2019-01-18T17:49:48.744Z,100506.81
2019-01-18T17:52:51.941Z,100508.14
2019-01-18T17:56:02.176Z,100512.91
2019-01-18T17:59:21.576Z,100512.63
2019-01-18T18:02:16.685Z,100504.65
2019-01-18T18:05:07.885Z,100505.71
2019-01-18T18:08:06.056Z,100503.78
2019-01-18T18:11:27.623Z,100504.97
2019-01-18T18:14:40.311Z,100502.31
2019-01-18T18:17:34.989Z,100507.87
2019-01-18T18:20:39.942Z,100506.55
2019-01-18T18:23:31.800Z,100507.74
2019-01-18T18:26:40.850Z,100503.70
2019-01-18T18:29:43.249Z,100509.95
2019-01-18T18:32:37.429Z,100507.13
2019-01-18T18:35:56.711Z,100505.13
2019-01-18T18:39:09.937Z,100497.80
2019-01-18T18:42:19.182Z,100504.66
2019-01-18T18:45:32.310Z,100501.81
2019-01-18T18:48:27.918Z,100501.94
2019-01-18T18:51:50.330Z,100507.39
2019-01-18T18:55:15.863Z,100503.32
2019-01-18T18:58:41.503Z,100507.28
2019-01-18T19:01:43.167Z,100496.55
2019-01-18T19:05:08.570Z,100493.92
2019-01-18T19:08:11.991Z,100492.01
2019-01-18T19:10:51.733Z,100489.41
2019-01-18T19:14:08.000Z,100485.50
2019-01-18T19:16:47.198Z,100485.84
2019-01-18T19:19:39.180Z,100482.98
2019-01-18T19:22:39.049Z,100476.86
2019-01-18T19:25:45.128Z,100480.95
2019-01-18T19:28:40.533Z,100479.28
2019-01-18T19:31:46.832Z,100473.89
2019-01-18T19:35:06.656Z,100473.89
2019-01-18T19:38:22.186Z,100471.08
2019-01-18T19:41:31.367Z,100466.95
2019-01-18T19:44:33.319Z,100465.97
2019-01-18T19:47:40.436Z,100468.23
2019-01-18T19:50:50.928Z,100468.73
2019-01-18T19:53:44.550Z,100466.78
2019-01-18T19:56:34.397Z,100466.31
2019-01-18T19:59:50.856Z,100461.05
2019-01-18T20:02:45.253Z,100463.21
2019-01-18T20:05:43.823Z,100467.16
2019-01-18T20:08:39.213Z,100463.25
2019-01-18T20:11:44.147Z,100463.38
2019-01-18T20:14:48.049Z,100458.70
2019-01-18T20:17:55.048Z,100466.39
2019-01-18T20:21:00.906Z,100468.24
2019-01-18T20:24:18.833Z,100458.42
2019-01-18T20:27:41.430Z,100460.34
2019-01-18T20:30:34.648Z,100462.00
2019-01-18T20:33:55.634Z,100460.59
2019-01-18T20:36:39.984Z,100457.52
2019-01-18T20:39:55.766Z,100459.39
2019-01-18T20:43:21.714Z,100459.77
2019-01-18T20:46:44.810Z,100457.38
2019-01-18T20:49:47.957Z,100459.35
2019-01-18T20:53:04.413Z,100463.82
2019-01-18T20:56:10.865Z,100462.28
2019-01-18T20:58:52.677Z,100463.12
2019-01-18T21:01:57.860Z,100467.80
2019-01-18T21:05:10.634Z,100460.34
2019-01-18T21:08:10.670Z,100463.70
2019-01-18T21:11:29.968Z,100463.72
2019-01-18T21:14:38.041Z,100463.59
2019-01-18T21:17:37.115Z,100464.19
2019-01-18T21:20:29.678Z,100464.81
2019-01-18T21:23:31.526Z,100460.85
2019-01-18T21:26:14.057Z,100456.80
2019-01-18T21:29:25.275Z,100458.59
2019-01-18T21:33:01.390Z,100458.12
2019-01-18T21:36:00.961Z,100454.30
2019-01-18T21:38:58.780Z,100456.72
2019-01-18T21:42:00.218Z,100455.97
2019-01-18T21:44:54.290Z,100460.14
2019-01-18T21:47:52.046Z,100460.63
2019-01-18T21:50:33.530Z,100452.14
2019-01-18T21:53:31.986Z,100453.26
2019-01-18T21:56:36.151Z,100452.30
2019-01-18T21:59:36.473Z,100455.52
2019-01-18T22:02:55.635Z,100454.81
2019-01-18T22:06:18.048Z,100456.13
2019-01-18T22:09:08.896Z,100459.70
2019-01-18T22:12:16.554Z,100453.97
2019-01-18T22:15:11.538Z,100458.87
2019-01-18T22:18:30.863Z,100453.14
2019-01-18T22:21:41.223Z,100456.72
2019-01-18T22:24:29.507Z,100453.00
2019-01-18T22:27:25.558Z,100451.23
2019-01-18T22:30:18.744Z,100458.06
2019-01-18T22:33:32.081Z,100457.70
2019-01-18T22:36:35.966Z,100459.25
2019-01-18T22:39:42.903Z,100458.30
2019-01-18T22:42:50.980Z,100458.67
2019-01-18T22:46:12.532Z,100467.28
2019-01-18T22:49:14.114Z,100460.33
2019-01-18T22:52:17.382Z,100461.52
2019-01-18T22:55:31.465Z,100461.39
2019-01-18T22:59:06.013Z,100461.17
2019-01-18T23:01:58.663Z,100457.84
2019-01-18T23:04:58.658Z,100460.22
2019-01-18T23:07:54.149Z,100463.91
2019-01-18T23:11:05.861Z,100459.14
2019-01-18T23:14:19.601Z,100456.48
2019-01-18T23:17:24.680Z,100461.13
2019-01-18T23:20:56.515Z,100462.17
2019-01-18T23:24:05.061Z,100459.98
2019-01-18T23:27:25.850Z,100455.98
2019-01-18T23:30:19.529Z,100460.99
2019-01-18T23:33:34.966Z,100458.31
2019-01-18T23:36:16.367Z,100453.09
2019-01-18T23:39:28.890Z,100457.36
2019-01-18T23:42:37.954Z,100451.91
2019-01-18T23:45:59.105Z,100455.77
2019-01-18T23:49:07.935Z,100452.53
2019-01-18T23:52:35.460Z,100455.19
2019-01-18T23:55:49.189Z,100455.31
2019-01-18T23:58:59.839Z,100450.88
